createdAt,value
2022-10-05T00:01:22.497Z,35.85
2022-10-05T00:03:49.257Z,35.22
2022-10-05T00:06:15.801Z,35.30
2022-10-05T00:08:42.944Z,35.90
2022-10-05T00:11:13.266Z,37.42
2022-10-05T00:13:40.108Z,37.58
2022-10-05T00:16:20.411Z,37.90
2022-10-05T00:18:50.103Z,38.85
2022-10-05T00:21:21.151Z,34.38
2022-10-05T00:23:47.986Z,35.90
2022-10-05T00:26:23.578Z,34.90
2022-10-05T00:28:50.577Z,36.17
2022-10-05T00:31:20.578Z,34.20
2022-10-05T00:33:48.003Z,34.40
2022-10-05T00:36:14.906Z,36.28
2022-10-05T00:38:42.564Z,36.10
2022-10-05T00:41:21.763Z,35.35
2022-10-05T00:44:03.780Z,35.25
2022-10-05T00:47:03.515Z,35.58
2022-10-05T00:49:59.091Z,33.17
2022-10-05T00:52:46.043Z,35.10
2022-10-05T00:55:44.939Z,34.58
2022-10-05T00:58:29.581Z,34.58
2022-10-05T01:01:16.670Z,34.75
2022-10-05T01:04:09.425Z,33.40
2022-10-05T01:06:41.953Z,36.28
2022-10-05T01:09:45.644Z,35.05
2022-10-05T01:12:41.191Z,35.92
2022-10-05T01:15:13.491Z,36.80
2022-10-05T01:18:17.308Z,36.35
2022-10-05T01:21:08.243Z,34.80
2022-10-05T01:24:02.934Z,35.92
2022-10-05T01:26:47.547Z,36.08
2022-10-05T01:29:25.199Z,35.80
2022-10-05T01:32:12.666Z,37.95
2022-10-05T01:34:52.804Z,37.97
2022-10-05T01:37:19.116Z,39.20
2022-10-05T01:39:59.455Z,36.95
2022-10-05T01:43:05.107Z,37.88
2022-10-05T01:45:47.612Z,38.35
2022-10-05T01:48:32.735Z,38.03
2022-10-05T01:51:25.704Z,38.08
2022-10-05T01:54:10.051Z,37.05
2022-10-05T01:56:46.850Z,37.97
2022-10-05T01:59:48.765Z,36.58
2022-10-05T02:02:18.852Z,38.40
2022-10-05T02:05:02.782Z,38.47
2022-10-05T02:07:43.646Z,39.65
2022-10-05T02:10:26.066Z,37.17
2022-10-05T02:12:59.775Z,38.83
2022-10-05T02:15:40.540Z,38.33
2022-10-05T02:18:13.374Z,37.00
2022-10-05T02:20:43.375Z,37.33
2022-10-05T02:23:17.119Z,37.10
2022-10-05T02:25:46.773Z,37.05
2022-10-05T02:28:22.447Z,37.92
2022-10-05T02:30:58.902Z,38.13
2022-10-05T02:33:33.095Z,37.10
2022-10-05T02:36:05.352Z,36.30
2022-10-05T02:38:47.182Z,37.28
2022-10-05T02:41:31.799Z,38.22
2022-10-05T02:44:28.289Z,36.95
2022-10-05T02:47:12.505Z,34.40
2022-10-05T02:50:00.515Z,36.92
2022-10-05T02:52:43.559Z,38.20
2022-10-05T02:55:19.482Z,37.60
2022-10-05T02:58:04.614Z,34.83
2022-10-05T03:00:39.404Z,35.30
2022-10-05T03:03:27.959Z,36.00
2022-10-05T03:06:02.604Z,35.45
2022-10-05T03:08:38.269Z,37.85
2022-10-05T03:11:25.428Z,35.33
2022-10-05T03:14:10.422Z,36.78
2022-10-05T03:16:52.038Z,34.38
2022-10-05T03:19:48.813Z,34.80
2022-10-05T03:22:28.896Z,35.72
2022-10-05T03:25:24.621Z,34.22
2022-10-05T03:28:18.922Z,35.92
2022-10-05T03:31:06.356Z,36.35
2022-10-05T03:33:32.687Z,33.83
2022-10-05T03:36:12.545Z,37.38
2022-10-05T03:38:59.264Z,36.33
2022-10-05T03:41:48.302Z,33.35
2022-10-05T03:44:23.261Z,35.85
2022-10-05T03:47:16.043Z,33.30
2022-10-05T03:50:17.312Z,35.78
2022-10-05T03:53:06.294Z,35.13
2022-10-05T03:55:52.129Z,36.30
2022-10-05T03:58:25.333Z,37.55
2022-10-05T04:00:56.081Z,32.42
2022-10-05T04:03:30.255Z,36.55
2022-10-05T04:06:02.968Z,34.80
2022-10-05T04:08:48.338Z,37.92
2022-10-05T04:11:21.296Z,36.25
2022-10-05T04:13:57.373Z,36.25
2022-10-05T04:16:31.546Z,37.25
2022-10-05T04:19:21.252Z,33.33
2022-10-05T04:22:09.823Z,35.05
2022-10-05T04:24:58.539Z,35.92
2022-10-05T04:27:39.687Z,36.78
2022-10-05T04:30:12.350Z,36.40
2022-10-05T04:32:48.288Z,35.92
2022-10-05T04:35:40.972Z,36.30
2022-10-05T04:38:37.452Z,38.00
2022-10-05T04:41:31.658Z,35.80
2022-10-05T04:44:25.571Z,41.85
2022-10-05T04:47:16.919Z,37.50
2022-10-05T04:49:56.623Z,38.70
2022-10-05T04:52:43.918Z,34.28
2022-10-05T04:55:22.598Z,36.85
2022-10-05T04:58:10.296Z,36.97
2022-10-05T05:00:49.363Z,36.97
2022-10-05T05:03:51.117Z,37.35
2022-10-05T05:06:38.976Z,38.35
2022-10-05T05:09:17.441Z,40.20
2022-10-05T05:12:05.720Z,41.20
2022-10-05T05:14:57.683Z,38.15
2022-10-05T05:17:33.251Z,37.97
2022-10-05T05:20:18.865Z,42.63
2022-10-05T05:23:03.954Z,39.78
2022-10-05T05:25:35.839Z,37.53
2022-10-05T05:28:23.539Z,40.03
2022-10-05T05:31:05.467Z,37.95
2022-10-05T05:33:40.981Z,33.85
2022-10-05T05:36:33.856Z,35.75
2022-10-05T05:39:22.009Z,39.33
2022-10-05T05:41:54.345Z,37.42
2022-10-05T05:44:25.981Z,36.72
2022-10-05T05:47:13.913Z,33.38
2022-10-05T05:50:08.670Z,37.90
2022-10-05T05:52:41.291Z,37.03
2022-10-05T05:55:19.005Z,35.03
2022-10-05T05:58:04.182Z,36.63
2022-10-05T06:00:37.523Z,37.70
2022-10-05T06:03:14.736Z,35.03
2022-10-05T06:05:46.638Z,33.03
2022-10-05T06:08:49.702Z,29.98
2022-10-05T06:11:31.715Z,35.33
2022-10-05T06:14:04.729Z,36.42
2022-10-05T06:16:37.006Z,38.35
2022-10-05T06:19:16.640Z,38.05
2022-10-05T06:21:44.785Z,34.58
2022-10-05T06:24:15.223Z,35.08
2022-10-05T06:26:59.636Z,30.95
2022-10-05T06:29:49.193Z,32.90
2022-10-05T06:32:34.832Z,32.95
2022-10-05T06:35:11.614Z,29.38
2022-10-05T06:37:53.191Z,31.73
2022-10-05T06:40:34.239Z,31.15
2022-10-05T06:43:12.447Z,30.00
2022-10-05T06:46:04.048Z,32.33
2022-10-05T06:48:51.405Z,31.88
2022-10-05T06:51:43.235Z,25.20
2022-10-05T06:54:17.826Z,26.20
2022-10-05T06:57:15.005Z,31.55
2022-10-05T06:59:53.313Z,32.05
2022-10-05T07:02:31.126Z,27.98
2022-10-05T07:05:27.471Z,24.90
2022-10-05T07:07:58.021Z,29.10
2022-10-05T07:11:04.566Z,27.58
2022-10-05T07:14:07.851Z,25.27
2022-10-05T07:16:49.416Z,28.02
2022-10-05T07:19:32.513Z,26.45
2022-10-05T07:22:27.399Z,26.55
2022-10-05T07:25:08.500Z,27.20
2022-10-05T07:28:02.676Z,25.60
2022-10-05T07:30:33.563Z,25.07
2022-10-05T07:33:24.193Z,27.67
2022-10-05T07:36:18.661Z,29.27
2022-10-05T07:38:58.737Z,28.08
2022-10-05T07:41:31.252Z,30.42
2022-10-05T07:44:12.934Z,29.90
2022-10-05T07:47:02.089Z,31.38
2022-10-05T07:49:57.951Z,29.30
2022-10-05T07:52:38.003Z,29.65
2022-10-05T07:55:19.090Z,30.60
2022-10-05T07:58:02.534Z,30.88
2022-10-05T08:00:48.814Z,29.02
2022-10-05T08:03:40.774Z,27.40
2022-10-05T08:06:16.241Z,29.02
2022-10-05T08:08:57.344Z,28.65
2022-10-05T08:11:50.115Z,27.88
2022-10-05T08:14:25.485Z,28.58
2022-10-05T08:16:55.635Z,29.65
2022-10-05T08:19:32.899Z,29.70
2022-10-05T08:22:06.258Z,28.23
2022-10-05T08:24:41.826Z,29.67
2022-10-05T08:27:08.079Z,26.33
2022-10-05T08:29:41.185Z,27.65
2022-10-05T08:32:30.435Z,29.90
2022-10-05T08:35:21.319Z,28.70
2022-10-05T08:37:49.289Z,29.60
2022-10-05T08:40:18.638Z,27.95
2022-10-05T08:43:09.980Z,30.85
2022-10-05T08:45:55.185Z,31.00
2022-10-05T08:48:24.743Z,30.58
2022-10-05T08:51:26.703Z,30.13
2022-10-05T08:54:02.013Z,30.95
2022-10-05T08:56:37.370Z,29.52
2022-10-05T08:59:27.736Z,30.00
2022-10-05T09:02:19.073Z,33.67
2022-10-05T09:05:27.754Z,34.50
2022-10-05T09:08:20.643Z,36.47
2022-10-05T09:11:11.504Z,33.60
2022-10-05T09:13:47.090Z,39.33
2022-10-05T09:16:58.538Z,37.20
2022-10-05T09:19:43.738Z,37.83
2022-10-05T09:22:33.745Z,39.50
2022-10-05T09:25:18.477Z,40.88
2022-10-05T09:31:12.519Z,33.60
2022-10-05T09:33:39.169Z,37.95
2022-10-05T09:36:30.138Z,36.58
2022-10-05T09:39:02.458Z,36.10
2022-10-05T09:41:44.077Z,34.38
2022-10-05T09:47:29.083Z,34.22
2022-10-05T09:50:14.174Z,33.70
2022-10-05T09:53:24.055Z,34.72
2022-10-05T09:56:21.011Z,33.80
2022-10-05T09:58:56.496Z,29.38
2022-10-05T10:01:41.114Z,33.53
2022-10-05T10:07:36.383Z,27.08
2022-10-05T10:10:29.151Z,32.38
2022-10-05T10:13:14.371Z,31.85
2022-10-05T10:15:54.641Z,30.88
2022-10-05T10:18:39.898Z,29.45
2022-10-05T10:21:30.913Z,29.80
2022-10-05T10:24:15.554Z,27.15
2022-10-05T10:26:44.992Z,26.13
2022-10-05T10:29:20.397Z,29.50
2022-10-05T10:32:16.408Z,28.10
2022-10-05T10:35:08.157Z,27.40
2022-10-05T10:37:53.042Z,25.33
2022-10-05T10:40:58.004Z,25.42
2022-10-05T10:43:27.502Z,24.63
2022-10-05T10:46:06.388Z,22.23
2022-10-05T10:48:53.829Z,23.73
2022-10-05T10:51:58.253Z,26.67
2022-10-05T10:54:42.079Z,21.25
2022-10-05T10:57:34.653Z,27.50
2022-10-05T11:00:15.515Z,25.23
2022-10-05T11:03:00.767Z,26.10
2022-10-05T11:05:48.788Z,24.70
2022-10-05T11:08:41.259Z,25.85
2022-10-05T11:11:19.843Z,23.70
2022-10-05T11:14:26.459Z,22.02
2022-10-05T11:17:25.175Z,19.63
2022-10-05T11:20:05.059Z,20.45
2022-10-05T11:22:48.018Z,19.02
2022-10-05T11:25:36.229Z,13.63
2022-10-05T11:28:21.563Z,15.88
2022-10-05T11:31:30.201Z,15.77
2022-10-05T11:34:09.825Z,14.02
2022-10-05T11:37:15.861Z,16.27
2022-10-05T11:39:44.532Z,17.05
2022-10-05T11:42:41.439Z,15.68
2022-10-05T11:45:19.036Z,16.90
2022-10-05T11:48:07.236Z,16.33
2022-10-05T11:50:56.158Z,18.65
2022-10-05T11:53:37.420Z,16.20
2022-10-05T11:56:25.683Z,13.00
2022-10-05T11:59:20.820Z,13.40
2022-10-05T12:04:45.342Z,10.65
2022-10-05T12:07:32.049Z,8.98
2022-10-05T12:10:21.176Z,11.02
2022-10-05T12:13:03.804Z,13.35
2022-10-05T12:15:50.251Z,9.05
2022-10-05T12:18:32.507Z,11.07
2022-10-05T12:21:05.196Z,11.10
2022-10-05T12:23:42.319Z,8.80
2022-10-05T12:26:16.274Z,9.30
2022-10-05T12:29:01.080Z,9.93
2022-10-05T12:31:41.456Z,12.30
2022-10-05T12:34:20.776Z,10.15
2022-10-05T12:37:04.057Z,10.25
2022-10-05T12:39:56.796Z,9.93
2022-10-05T12:42:51.165Z,10.30
2022-10-05T12:45:31.836Z,9.32
2022-10-05T12:48:19.767Z,9.98
2022-10-05T12:50:51.074Z,13.55
2022-10-05T12:53:48.399Z,15.07
2022-10-05T12:56:21.706Z,16.27
2022-10-05T12:58:57.496Z,15.57
2022-10-05T13:02:05.770Z,18.45
2022-10-05T13:04:44.061Z,16.60
2022-10-05T13:07:39.268Z,17.38
2022-10-05T13:12:54.267Z,15.57
2022-10-05T13:15:43.900Z,15.27
2022-10-05T13:18:29.658Z,16.92
2022-10-05T13:21:12.408Z,19.65
2022-10-05T13:24:06.927Z,16.45
2022-10-05T13:26:37.944Z,15.40
2022-10-05T13:29:33.119Z,15.10
2022-10-05T13:32:15.694Z,17.80
2022-10-05T13:34:53.040Z,20.83
2022-10-05T13:37:50.320Z,20.95
2022-10-05T13:40:49.473Z,18.08
2022-10-05T13:43:25.379Z,18.85
2022-10-05T13:45:57.044Z,21.13
2022-10-05T13:48:49.507Z,18.35
2022-10-05T13:51:19.010Z,18.17
2022-10-05T13:53:53.077Z,19.52
2022-10-05T13:56:33.489Z,21.92
2022-10-05T13:59:30.574Z,21.98
2022-10-05T14:02:09.233Z,21.98
2022-10-05T14:04:58.275Z,22.85
2022-10-05T14:07:48.790Z,21.00
2022-10-05T14:10:31.370Z,23.08
2022-10-05T14:12:58.115Z,22.88
2022-10-05T14:15:38.489Z,24.00
2022-10-05T14:18:37.382Z,25.20
2022-10-05T14:21:13.173Z,26.23
2022-10-05T14:23:40.025Z,26.85
2022-10-05T14:26:34.752Z,27.88
2022-10-05T14:29:17.127Z,24.35
2022-10-05T14:32:13.407Z,24.00
2022-10-05T14:34:45.712Z,23.05
2022-10-05T14:37:24.703Z,26.05
2022-10-05T14:39:54.621Z,22.80
2022-10-05T14:42:27.014Z,24.48
2022-10-05T14:45:12.498Z,24.13
2022-10-05T14:47:53.008Z,23.33
2022-10-05T14:50:26.026Z,21.33
2022-10-05T14:53:11.251Z,22.83
2022-10-05T14:56:17.203Z,27.27
2022-10-05T14:59:04.193Z,16.60
2022-10-05T15:01:33.858Z,17.75
2022-10-05T15:04:16.625Z,17.88
2022-10-05T15:06:53.367Z,24.92
2022-10-05T15:09:24.617Z,22.13
2022-10-05T15:11:53.582Z,25.73
2022-10-05T15:14:38.185Z,23.58
2022-10-05T15:17:16.121Z,23.00
2022-10-05T15:19:48.111Z,19.33
2022-10-05T15:22:21.738Z,20.05
2022-10-05T15:25:12.938Z,24.67
2022-10-05T15:28:05.604Z,16.98
2022-10-05T15:30:37.305Z,18.15
2022-10-05T15:33:15.430Z,21.17
2022-10-05T15:35:55.835Z,18.83
2022-10-05T15:38:28.519Z,20.52
2022-10-05T15:41:22.485Z,20.45
2022-10-05T15:44:07.396Z,26.42
2022-10-05T15:46:43.621Z,27.85
2022-10-05T15:49:24.203Z,29.42
2022-10-05T15:52:23.760Z,25.60
2022-10-05T15:55:09.087Z,26.00
2022-10-05T15:57:47.979Z,21.00
2022-10-05T16:00:19.879Z,23.52
2022-10-05T16:02:52.087Z,23.25
2022-10-05T16:05:56.815Z,19.50
2022-10-05T16:08:50.370Z,22.40
2022-10-05T16:11:46.357Z,23.50
2022-10-05T16:14:33.000Z,20.30
2022-10-05T16:17:18.676Z,24.33
2022-10-05T16:20:07.962Z,18.00
2022-10-05T16:22:49.174Z,20.48
2022-10-05T16:25:36.428Z,23.98
2022-10-05T16:28:06.094Z,21.77
2022-10-05T16:31:09.894Z,22.08
2022-10-05T16:34:17.227Z,20.05
2022-10-05T16:36:57.636Z,18.92
2022-10-05T16:39:48.478Z,14.35
2022-10-05T16:42:32.761Z,13.48
2022-10-05T16:45:20.699Z,13.80
2022-10-05T16:48:03.007Z,11.25
2022-10-05T16:50:58.119Z,11.13
2022-10-05T16:53:36.221Z,10.55
2022-10-05T16:56:11.131Z,9.65
2022-10-05T16:58:59.433Z,12.18
2022-10-05T17:01:58.764Z,10.32
2022-10-05T17:05:02.176Z,12.15
2022-10-05T17:07:57.902Z,14.18
2022-10-05T17:10:37.084Z,13.15
2022-10-05T17:13:40.965Z,18.77
2022-10-05T17:16:33.084Z,15.43
2022-10-05T17:19:32.158Z,16.65
2022-10-05T17:22:03.410Z,14.45
2022-10-05T17:24:49.128Z,12.57
2022-10-05T17:27:20.987Z,10.35
2022-10-05T17:29:47.561Z,10.82
2022-10-05T17:32:17.050Z,10.70
2022-10-05T17:35:18.251Z,9.80
2022-10-05T17:38:27.562Z,11.50
2022-10-05T17:41:00.201Z,12.00
2022-10-05T17:43:28.506Z,10.23
2022-10-05T17:46:03.353Z,10.57
2022-10-05T17:48:48.260Z,9.38
2022-10-05T17:51:53.050Z,10.25
2022-10-05T17:54:43.986Z,10.15
2022-10-05T17:57:10.238Z,10.13
2022-10-05T18:00:07.437Z,10.43
2022-10-05T18:02:39.785Z,11.57
2022-10-05T18:05:12.044Z,10.77
2022-10-05T18:07:40.186Z,8.68
2022-10-05T18:10:09.505Z,10.02
2022-10-05T18:12:39.236Z,10.85
2022-10-05T18:15:05.484Z,11.20
2022-10-05T18:18:32.051Z,11.00
2022-10-05T18:21:14.315Z,11.05
2022-10-05T18:23:52.555Z,11.20
2022-10-05T18:26:32.651Z,10.38
2022-10-05T18:29:47.183Z,10.65
2022-10-05T18:32:29.246Z,10.13
2022-10-05T18:35:03.441Z,10.35
2022-10-05T18:37:56.944Z,10.48
2022-10-05T18:40:39.874Z,10.10
2022-10-05T18:43:27.637Z,9.27
2022-10-05T18:46:32.577Z,10.43
2022-10-05T18:49:01.620Z,9.68
2022-10-05T18:51:39.457Z,10.13
2022-10-05T18:54:32.181Z,11.50
2022-10-05T18:57:12.398Z,11.60
2022-10-05T18:59:51.343Z,10.15
2022-10-05T19:02:47.390Z,10.80
2022-10-05T19:05:49.138Z,10.50
2022-10-05T19:08:41.130Z,10.23
2022-10-05T19:11:27.799Z,11.40
2022-10-05T19:14:22.057Z,11.80
2022-10-05T19:17:00.426Z,14.55
2022-10-05T19:19:43.907Z,12.43
2022-10-05T19:22:22.001Z,11.70
2022-10-05T19:25:21.566Z,11.80
2022-10-05T19:28:12.881Z,13.60
2022-10-05T19:30:59.121Z,12.05
2022-10-05T19:34:07.534Z,12.93
2022-10-05T19:37:22.276Z,11.45
2022-10-05T19:40:04.617Z,10.97
2022-10-05T19:42:45.041Z,14.05
2022-10-05T19:45:17.730Z,13.07
2022-10-05T19:48:02.339Z,12.77
2022-10-05T19:50:32.633Z,14.68
2022-10-05T19:53:13.861Z,18.35
2022-10-05T19:55:43.474Z,20.88
2022-10-05T19:58:22.183Z,21.67
2022-10-05T20:01:00.821Z,20.13
2022-10-05T20:03:32.315Z,20.95
2022-10-05T20:06:01.152Z,21.15
2022-10-05T20:08:36.905Z,21.50
2022-10-05T20:11:07.358Z,21.17
2022-10-05T20:13:35.169Z,21.60
2022-10-05T20:16:35.695Z,20.17
2022-10-05T20:19:23.899Z,19.45
2022-10-05T20:21:59.695Z,19.60
2022-10-05T20:24:28.544Z,20.52
2022-10-05T20:27:06.899Z,22.92
2022-10-05T20:29:41.247Z,18.92
2022-10-05T20:32:12.560Z,19.88
2022-10-05T20:34:44.822Z,18.27
2022-10-05T20:37:14.187Z,20.05
2022-10-05T20:39:40.967Z,18.50
2022-10-05T20:42:08.322Z,19.30
2022-10-05T20:44:35.419Z,21.67
2022-10-05T20:47:02.071Z,20.92
2022-10-05T20:49:30.950Z,21.25
2022-10-05T20:51:58.667Z,21.45
2022-10-05T20:54:26.434Z,23.70
2022-10-05T20:56:54.761Z,23.25
2022-10-05T20:59:25.527Z,26.27
2022-10-05T21:01:52.185Z,22.98
2022-10-05T21:04:23.860Z,22.92
2022-10-05T21:06:50.635Z,23.73
2022-10-05T21:09:21.241Z,28.17
2022-10-05T21:11:54.422Z,26.65
2022-10-05T21:14:20.868Z,28.58
2022-10-05T21:16:47.267Z,27.92
2022-10-05T21:19:14.269Z,31.85
2022-10-05T21:21:42.413Z,24.15
2022-10-05T21:24:09.655Z,28.13
2022-10-05T21:26:37.383Z,31.27
2022-10-05T21:29:07.786Z,37.85
2022-10-05T21:31:37.299Z,36.97
2022-10-05T21:34:04.705Z,65.85
2022-10-05T21:36:32.137Z,74.07
2022-10-05T21:38:58.511Z,74.43
2022-10-05T21:41:25.195Z,59.55
2022-10-05T21:43:51.701Z,57.45
2022-10-05T21:46:22.428Z,56.35
2022-10-05T21:48:49.509Z,58.70
2022-10-05T21:51:18.753Z,70.15
2022-10-05T21:53:53.375Z,65.43
2022-10-05T21:56:22.275Z,60.50
2022-10-05T21:58:50.078Z,59.72
2022-10-05T22:01:22.273Z,67.22
2022-10-05T22:03:49.186Z,57.53
2022-10-05T22:06:15.665Z,64.05
2022-10-05T22:08:42.034Z,59.53
2022-10-05T22:11:12.015Z,58.83
2022-10-05T22:13:52.063Z,57.92
2022-10-05T22:16:21.157Z,57.15
2022-10-05T22:18:48.917Z,57.47
2022-10-05T22:21:16.473Z,57.97
2022-10-05T22:23:45.439Z,54.30
2022-10-05T22:26:16.705Z,53.40
2022-10-05T22:28:43.554Z,50.60
2022-10-05T22:31:11.549Z,54.00
2022-10-05T22:33:38.130Z,51.17
2022-10-05T22:36:05.838Z,46.80
2022-10-05T22:38:32.813Z,48.45
2022-10-05T22:40:59.372Z,48.13
2022-10-05T22:43:26.991Z,46.10
2022-10-05T22:45:54.073Z,48.58
2022-10-05T22:48:20.616Z,43.38
2022-10-05T22:50:49.263Z,49.78
2022-10-05T22:53:15.673Z,47.70
2022-10-05T22:55:42.023Z,49.35
2022-10-05T22:58:08.375Z,55.20
2022-10-05T23:00:56.872Z,55.22
2022-10-05T23:03:21.129Z,50.25
2022-10-05T23:05:47.507Z,46.63
2022-10-05T23:08:13.967Z,50.50
2022-10-05T23:10:40.304Z,51.70
2022-10-05T23:13:07.827Z,54.78
2022-10-05T23:15:34.419Z,56.03
2022-10-05T23:18:00.789Z,61.47
2022-10-05T23:20:27.305Z,61.35
2022-10-05T23:22:53.868Z,58.53
2022-10-05T23:25:22.069Z,55.92
2022-10-05T23:27:48.486Z,55.17
2022-10-05T23:30:14.939Z,69.45
2022-10-05T23:32:43.370Z,66.78
2022-10-05T23:35:12.252Z,62.05
2022-10-05T23:37:43.892Z,62.05
2022-10-05T23:40:14.210Z,71.25
2022-10-05T23:42:41.261Z,75.22
2022-10-05T23:45:09.984Z,74.15
2022-10-05T23:47:36.515Z,69.82
2022-10-05T23:50:04.511Z,68.05
2022-10-05T23:52:30.877Z,72.90
2022-10-05T23:54:57.285Z,67.03
2022-10-05T23:57:23.719Z,69.03
2022-10-05T23:59:50.278Z,65.40
